sensor_id;sensor_type;location;lat;lon;timestamp;P1;durP1;ratioP1;P2;durP2;ratioP2
14774;SDS011;7479;47.042;15.160;2023-08-07T06:06:51;1.47;;;1.17;;
14774;SDS011;7479;47.042;15.160;2023-08-07T06:11:44;2.57;;;1.03;;
14774;SDS011;7479;47.042;15.160;2023-08-07T06:16:38;2.00;;;1.20;;
14774;SDS011;7479;47.042;15.160;2023-08-07T06:21:31;2.93;;;1.00;;
14774;SDS011;7479;47.042;15.160;2023-08-07T06:26:26;1.63;;;1.00;;
14774;SDS011;7479;47.042;15.160;2023-08-07T06:31:20;1.60;;;1.30;;
14774;SDS011;7479;47.042;15.160;2023-08-07T06:36:13;1.23;;;1.13;;
14774;SDS011;7479;47.042;15.160;2023-08-07T06:41:07;6.90;;;1.10;;
14774;SDS011;7479;47.042;15.160;2023-08-07T06:46:02;2.60;;;0.80;;
14774;SDS011;7479;47.042;15.160;2023-08-07T06:50:56;0.70;;;0.70;;
14774;SDS011;7479;47.042;15.160;2023-08-07T06:55:49;1.38;;;0.75;;
14774;SDS011;7479;47.042;15.160;2023-08-07T07:00:46;0.68;;;0.60;;
14774;SDS011;7479;47.042;15.160;2023-08-07T07:05:41;0.70;;;0.70;;
14774;SDS011;7479;47.042;15.160;2023-08-07T07:10:35;1.02;;;0.60;;
14774;SDS011;7479;47.042;15.160;2023-08-07T07:15:29;0.55;;;0.50;;
14774;SDS011;7479;47.042;15.160;2023-08-07T07:20:22;0.60;;;0.60;;
14774;SDS011;7479;47.042;15.160;2023-08-07T07:25:18;0.60;;;0.60;;
14774;SDS011;7479;47.042;15.160;2023-08-07T07:30:11;0.50;;;0.50;;
14774;SDS011;7479;47.042;15.160;2023-08-07T07:35:05;0.52;;;0.50;;
14774;SDS011;7479;47.042;15.160;2023-08-07T07:39:59;0.60;;;0.60;;
14774;SDS011;7479;47.042;15.160;2023-08-07T07:44:54;0.50;;;0.50;;
14774;SDS011;7479;47.042;15.160;2023-08-07T07:49:48;0.70;;;0.70;;
14774;SDS011;7479;47.042;15.160;2023-08-07T07:54:56;0.60;;;0.60;;
14774;SDS011;7479;47.042;15.160;2023-08-07T07:59:51;0.68;;;0.50;;
14774;SDS011;7479;47.042;15.160;2023-08-07T08:04:46;0.50;;;0.50;;
14774;SDS011;7479;47.042;15.160;2023-08-07T08:09:41;0.47;;;0.47;;
14774;SDS011;7479;47.042;15.160;2023-08-07T08:14:34;1.05;;;0.52;;
14774;SDS011;7479;47.042;15.160;2023-08-07T08:19:46;0.60;;;0.60;;
14774;SDS011;7479;47.042;15.160;2023-08-07T08:24:41;2.75;;;0.50;;
14774;SDS011;7479;47.042;15.160;2023-08-07T08:29:35;0.50;;;0.50;;
14774;SDS011;7479;47.042;15.160;2023-08-07T08:34:29;1.40;;;0.55;;
14774;SDS011;7479;47.042;15.160;2023-08-07T08:39:24;0.52;;;0.50;;
14774;SDS011;7479;47.042;15.160;2023-08-07T08:44:19;0.70;;;0.70;;
14774;SDS011;7479;47.042;15.160;2023-08-07T08:49:15;2.78;;;0.50;;
14774;SDS011;7479;47.042;15.160;2023-08-07T08:54:13;0.60;;;0.60;;
14774;SDS011;7479;47.042;15.160;2023-08-07T08:59:09;1.38;;;0.55;;
14774;SDS011;7479;47.042;15.160;2023-08-07T09:04:03;0.50;;;0.50;;
14774;SDS011;7479;47.042;15.160;2023-08-07T09:08:57;0.50;;;0.50;;
14774;SDS011;7479;47.042;15.160;2023-08-07T09:13:52;0.88;;;0.52;;
14774;SDS011;7479;47.042;15.160;2023-08-07T09:18:51;0.60;;;0.60;;
14774;SDS011;7479;47.042;15.160;2023-08-07T09:23:46;0.70;;;0.70;;
14774;SDS011;7479;47.042;15.160;2023-08-07T09:28:39;1.17;;;0.60;;
14774;SDS011;7479;47.042;15.160;2023-08-07T09:33:33;0.60;;;0.60;;
14774;SDS011;7479;47.042;15.160;2023-08-07T09:38:29;0.60;;;0.60;;
14774;SDS011;7479;47.042;15.160;2023-08-07T09:43:24;0.68;;;0.68;;
14774;SDS011;7479;47.042;15.160;2023-08-07T09:48:22;0.70;;;0.70;;
14774;SDS011;7479;47.042;15.160;2023-08-07T09:53:17;1.38;;;0.77;;
14774;SDS011;7479;47.042;15.160;2023-08-07T09:58:12;0.90;;;0.70;;
14774;SDS011;7479;47.042;15.160;2023-08-07T10:03:07;0.90;;;0.80;;
14774;SDS011;7479;47.042;15.160;2023-08-07T10:08:01;0.70;;;0.70;;
14774;SDS011;7479;47.042;15.160;2023-08-07T10:12:56;1.00;;;0.95;;
14774;SDS011;7479;47.042;15.160;2023-08-07T10:17:54;0.70;;;0.70;;
14774;SDS011;7479;47.042;15.160;2023-08-07T10:22:48;0.60;;;0.60;;
14774;SDS011;7479;47.042;15.160;2023-08-07T10:27:42;1.10;;;0.73;;
14774;SDS011;7479;47.042;15.160;2023-08-07T10:32:37;0.63;;;0.63;;
14774;SDS011;7479;47.042;15.160;2023-08-07T10:37:42;0.60;;;0.60;;
14774;SDS011;7479;47.042;15.160;2023-08-07T10:42:51;0.88;;;0.88;;
14774;SDS011;7479;47.042;15.160;2023-08-07T10:47:45;0.85;;;0.70;;
14774;SDS011;7479;47.042;15.160;2023-08-07T10:52:52;1.15;;;0.70;;
14774;SDS011;7479;47.042;15.160;2023-08-07T10:57:46;0.93;;;0.73;;
14774;SDS011;7479;47.042;15.160;2023-08-07T11:02:41;1.48;;;0.55;;
14774;SDS011;7479;47.042;15.160;2023-08-07T11:07:36;0.70;;;0.70;;
14774;SDS011;7479;47.042;15.160;2023-08-07T11:12:37;0.70;;;0.70;;
14774;SDS011;7479;47.042;15.160;2023-08-07T11:17:31;0.50;;;0.50;;
14774;SDS011;7479;47.042;15.160;2023-08-07T11:22:24;0.60;;;0.60;;
14774;SDS011;7479;47.042;15.160;2023-08-07T11:27:20;0.70;;;0.70;;
14774;SDS011;7479;47.042;15.160;2023-08-07T11:32:15;0.73;;;0.73;;
14774;SDS011;7479;47.042;15.160;2023-08-07T11:37:14;0.65;;;0.65;;
14774;SDS011;7479;47.042;15.160;2023-08-07T11:42:08;0.63;;;0.63;;
14774;SDS011;7479;47.042;15.160;2023-08-07T11:47:02;1.00;;;0.90;;
14774;SDS011;7479;47.042;15.160;2023-08-07T11:51:58;0.73;;;0.70;;
14774;SDS011;7479;47.042;15.160;2023-08-07T11:56:52;0.80;;;0.80;;
14774;SDS011;7479;47.042;15.160;2023-08-07T12:01:46;1.83;;;0.80;;
14774;SDS011;7479;47.042;15.160;2023-08-07T12:06:51;1.15;;;0.77;;
14774;SDS011;7479;47.042;15.160;2023-08-07T12:11:48;3.42;;;0.98;;
14774;SDS011;7479;47.042;15.160;2023-08-07T12:16:43;0.70;;;0.70;;
14774;SDS011;7479;47.042;15.160;2023-08-07T12:21:38;0.77;;;0.77;;
14774;SDS011;7479;47.042;15.160;2023-08-07T12:26:31;2.70;;;0.98;;
14774;SDS011;7479;47.042;15.160;2023-08-07T12:31:28;1.42;;;0.90;;
14774;SDS011;7479;47.042;15.160;2023-08-07T12:36:22;1.00;;;0.95;;
14774;SDS011;7479;47.042;15.160;2023-08-07T12:41:16;0.70;;;0.70;;
14774;SDS011;7479;47.042;15.160;2023-08-07T12:46:14;1.15;;;1.05;;
14774;SDS011;7479;47.042;15.160;2023-08-07T12:51:13;1.20;;;1.10;;
14774;SDS011;7479;47.042;15.160;2023-08-07T12:56:07;1.55;;;1.30;;
14774;SDS011;7479;47.042;15.160;2023-08-07T13:01:01;1.80;;;1.70;;
14774;SDS011;7479;47.042;15.160;2023-08-07T13:05:55;1.30;;;1.20;;
14774;SDS011;7479;47.042;15.160;2023-08-07T13:10:51;1.67;;;1.38;;
14774;SDS011;7479;47.042;15.160;2023-08-07T13:15:46;1.45;;;1.30;;
14774;SDS011;7479;47.042;15.160;2023-08-07T13:20:39;1.38;;;1.27;;
14774;SDS011;7479;47.042;15.160;2023-08-07T13:25:33;1.38;;;1.20;;
14774;SDS011;7479;47.042;15.160;2023-08-07T13:30:30;1.35;;;1.20;;
14774;SDS011;7479;47.042;15.160;2023-08-07T13:35:28;1.33;;;1.00;;
14774;SDS011;7479;47.042;15.160;2023-08-07T13:40:22;0.93;;;0.90;;
14774;SDS011;7479;47.042;15.160;2023-08-07T13:45:17;1.83;;;1.25;;
14774;SDS011;7479;47.042;15.160;2023-08-07T13:50:13;2.08;;;0.90;;
14774;SDS011;7479;47.042;15.160;2023-08-07T13:55:08;0.93;;;0.82;;
14774;SDS011;7479;47.042;15.160;2023-08-07T14:00:02;1.20;;;0.85;;
14774;SDS011;7479;47.042;15.160;2023-08-07T14:05:00;1.13;;;1.02;;
14774;SDS011;7479;47.042;15.160;2023-08-07T14:09:56;0.82;;;0.80;;
14774;SDS011;7479;47.042;15.160;2023-08-07T14:14:49;1.17;;;1.08;;
14774;SDS011;7479;47.042;15.160;2023-08-07T14:19:43;0.98;;;0.88;;
14774;SDS011;7479;47.042;15.160;2023-08-07T14:24:37;0.77;;;0.77;;
14774;SDS011;7479;47.042;15.160;2023-08-07T14:29:33;0.95;;;0.90;;
14774;SDS011;7479;47.042;15.160;2023-08-07T14:34:28;1.02;;;0.88;;
14774;SDS011;7479;47.042;15.160;2023-08-07T14:39:21;0.80;;;0.80;;
14774;SDS011;7479;47.042;15.160;2023-08-07T14:44:15;0.90;;;0.82;;
14774;SDS011;7479;47.042;15.160;2023-08-07T14:49:10;0.80;;;0.75;;
14774;SDS011;7479;47.042;15.160;2023-08-07T14:54:04;0.60;;;0.60;;
14774;SDS011;7479;47.042;15.160;2023-08-07T14:58:58;0.70;;;0.70;;
14774;SDS011;7479;47.042;15.160;2023-08-07T15:03:52;0.85;;;0.70;;
14774;SDS011;7479;47.042;15.160;2023-08-07T15:08:48;0.85;;;0.70;;
14774;SDS011;7479;47.042;15.160;2023-08-07T15:13:43;0.70;;;0.60;;
14774;SDS011;7479;47.042;15.160;2023-08-07T15:18:37;0.75;;;0.75;;
14774;SDS011;7479;47.042;15.160;2023-08-07T15:23:32;0.80;;;0.80;;
14774;SDS011;7479;47.042;15.160;2023-08-07T15:28:28;0.60;;;0.60;;
14774;SDS011;7479;47.042;15.160;2023-08-07T15:33:22;1.17;;;0.80;;
14774;SDS011;7479;47.042;15.160;2023-08-07T15:38:16;0.98;;;0.88;;
14774;SDS011;7479;47.042;15.160;2023-08-07T15:43:10;0.70;;;0.70;;
14774;SDS011;7479;47.042;15.160;2023-08-07T15:48:06;1.13;;;0.93;;
14774;SDS011;7479;47.042;15.160;2023-08-07T15:53:00;1.00;;;0.90;;
14774;SDS011;7479;47.042;15.160;2023-08-07T15:57:54;0.80;;;0.80;;
14774;SDS011;7479;47.042;15.160;2023-08-07T16:02:49;1.05;;;0.95;;
14774;SDS011;7479;47.042;15.160;2023-08-07T16:07:45;1.30;;;1.00;;
14774;SDS011;7479;47.042;15.160;2023-08-07T16:12:41;1.48;;;1.10;;
14774;SDS011;7479;47.042;15.160;2023-08-07T16:17:34;1.98;;;0.88;;
14774;SDS011;7479;47.042;15.160;2023-08-07T16:22:29;0.88;;;0.77;;
14774;SDS011;7479;47.042;15.160;2023-08-07T16:27:25;0.88;;;0.88;;
14774;SDS011;7479;47.042;15.160;2023-08-07T16:32:19;1.10;;;1.00;;
14774;SDS011;7479;47.042;15.160;2023-08-07T16:37:14;1.38;;;1.00;;
14774;SDS011;7479;47.042;15.160;2023-08-07T16:42:09;0.82;;;0.82;;
14774;SDS011;7479;47.042;15.160;2023-08-07T16:47:06;1.00;;;0.88;;
14774;SDS011;7479;47.042;15.160;2023-08-07T16:52:00;0.75;;;0.75;;
14774;SDS011;7479;47.042;15.160;2023-08-07T16:56:56;1.17;;;0.93;;
14774;SDS011;7479;47.042;15.160;2023-08-07T17:01:51;1.00;;;1.00;;
14774;SDS011;7479;47.042;15.160;2023-08-07T17:06:47;1.05;;;0.90;;
14774;SDS011;7479;47.042;15.160;2023-08-07T17:11:41;4.10;;;1.85;;
14774;SDS011;7479;47.042;15.160;2023-08-07T17:16:35;0.90;;;0.90;;
14774;SDS011;7479;47.042;15.160;2023-08-07T17:21:30;1.20;;;1.10;;
14774;SDS011;7479;47.042;15.160;2023-08-07T17:26:25;1.40;;;1.10;;
14774;SDS011;7479;47.042;15.160;2023-08-07T17:31:21;0.98;;;0.98;;
14774;SDS011;7479;47.042;15.160;2023-08-07T17:36:15;1.08;;;0.98;;
14774;SDS011;7479;47.042;15.160;2023-08-07T17:41:08;1.02;;;0.90;;
14774;SDS011;7479;47.042;15.160;2023-08-07T17:46:04;0.93;;;0.93;;
14774;SDS011;7479;47.042;15.160;2023-08-07T17:50:58;0.95;;;0.85;;
14774;SDS011;7479;47.042;15.160;2023-08-07T17:55:51;1.45;;;1.00;;
14774;SDS011;7479;47.042;15.160;2023-08-07T18:00:45;1.50;;;0.90;;
14774;SDS011;7479;47.042;15.160;2023-08-07T18:05:41;1.08;;;0.98;;
14774;SDS011;7479;47.042;15.160;2023-08-07T18:10:34;1.15;;;1.05;;
14774;SDS011;7479;47.042;15.160;2023-08-07T18:15:28;1.35;;;1.05;;
14774;SDS011;7479;47.042;15.160;2023-08-07T18:20:22;1.27;;;1.15;;
14774;SDS011;7479;47.042;15.160;2023-08-07T18:25:17;1.08;;;0.98;;
14774;SDS011;7479;47.042;15.160;2023-08-07T18:30:11;1.08;;;0.98;;
14774;SDS011;7479;47.042;15.160;2023-08-07T18:35:06;0.90;;;0.90;;
14774;SDS011;7479;47.042;15.160;2023-08-07T18:40:00;1.05;;;1.00;;
14774;SDS011;7479;47.042;15.160;2023-08-07T18:44:55;1.00;;;1.00;;
14774;SDS011;7479;47.042;15.160;2023-08-07T18:49:49;1.50;;;1.40;;
14774;SDS011;7479;47.042;15.160;2023-08-07T18:54:43;1.00;;;0.90;;
14774;SDS011;7479;47.042;15.160;2023-08-07T18:59:37;1.08;;;1.00;;
14774;SDS011;7479;47.042;15.160;2023-08-07T19:04:33;2.60;;;1.10;;
14774;SDS011;7479;47.042;15.160;2023-08-07T19:09:27;1.10;;;1.10;;
14774;SDS011;7479;47.042;15.160;2023-08-07T19:14:21;2.20;;;1.00;;
14774;SDS011;7479;47.042;15.160;2023-08-07T19:19:16;1.25;;;1.15;;
14774;SDS011;7479;47.042;15.160;2023-08-07T19:24:11;1.55;;;0.98;;
14774;SDS011;7479;47.042;15.160;2023-08-07T19:29:05;1.27;;;1.10;;
14774;SDS011;7479;47.042;15.160;2023-08-07T19:34:01;1.55;;;1.17;;
14774;SDS011;7479;47.042;15.160;2023-08-07T19:38:55;1.92;;;1.00;;
14774;SDS011;7479;47.042;15.160;2023-08-07T19:43:53;1.33;;;1.13;;
14774;SDS011;7479;47.042;15.160;2023-08-07T19:48:47;2.47;;;1.05;;
14774;SDS011;7479;47.042;15.160;2023-08-07T19:53:41;1.63;;;1.30;;
14774;SDS011;7479;47.042;15.160;2023-08-07T19:58:53;1.00;;;1.00;;
14774;SDS011;7479;47.042;15.160;2023-08-07T20:03:47;1.30;;;1.20;;
14774;SDS011;7479;47.042;15.160;2023-08-07T20:08:41;1.20;;;1.10;;
14774;SDS011;7479;47.042;15.160;2023-08-07T20:13:35;1.33;;;1.00;;
14774;SDS011;7479;47.042;15.160;2023-08-07T20:18:31;1.30;;;1.20;;
14774;SDS011;7479;47.042;15.160;2023-08-07T20:23:25;1.25;;;1.15;;
14774;SDS011;7479;47.042;15.160;2023-08-07T20:28:19;1.40;;;1.30;;
14774;SDS011;7479;47.042;15.160;2023-08-07T20:33:13;1.60;;;1.25;;
14774;SDS011;7479;47.042;15.160;2023-08-07T20:38:08;1.40;;;1.30;;
14774;SDS011;7479;47.042;15.160;2023-08-07T20:43:01;2.08;;;1.88;;
14774;SDS011;7479;47.042;15.160;2023-08-07T20:47:55;1.42;;;1.33;;
14774;SDS011;7479;47.042;15.160;2023-08-07T20:52:49;1.40;;;1.30;;
14774;SDS011;7479;47.042;15.160;2023-08-07T20:57:44;2.47;;;1.85;;
14774;SDS011;7479;47.042;15.160;2023-08-07T21:02:38;1.58;;;1.48;;
14774;SDS011;7479;47.042;15.160;2023-08-07T21:07:32;1.67;;;1.58;;
14774;SDS011;7479;47.042;15.160;2023-08-07T21:12:26;2.60;;;2.40;;
14774;SDS011;7479;47.042;15.160;2023-08-07T21:17:21;2.92;;;2.15;;
14774;SDS011;7479;47.042;15.160;2023-08-07T21:22:15;3.85;;;2.25;;
14774;SDS011;7479;47.042;15.160;2023-08-07T21:27:08;2.85;;;2.20;;
14774;SDS011;7479;47.042;15.160;2023-08-07T21:32:03;2.80;;;1.83;;
14774;SDS011;7479;47.042;15.160;2023-08-07T21:36:59;2.47;;;1.63;;
14774;SDS011;7479;47.042;15.160;2023-08-07T21:41:53;3.43;;;1.60;;
14774;SDS011;7479;47.042;15.160;2023-08-07T21:46:47;2.33;;;2.13;;
14774;SDS011;7479;47.042;15.160;2023-08-07T21:51:41;3.53;;;2.17;;
14774;SDS011;7479;47.042;15.160;2023-08-07T21:56:36;4.80;;;2.40;;
14774;SDS011;7479;47.042;15.160;2023-08-07T22:01:34;3.97;;;1.60;;
